Time;durP1;ratioP1;P1;durP2;ratioP2;P2;SDS_P1;SDS_P2;PMS_P1;PMS_P2;Temp;Humidity;BMP_temperature;BMP_pressure;BME280_temperature;BME280_humidity;BME280_pressure;Samples;Min_cycle;Max_cycle;Signal;HPM_P1;HPM_P2
2020/12/12 00:00:59;;;;;;;36.97;15.85;;;;;;;-2.81;88.18;99590.53;3491218;28;20532;-42
2020/12/12 00:02:40;;;;;;;38.78;15.63;;;;;;;-2.81;88.15;99595.59;3493848;28;20049;-58
2020/12/12 00:04:22;;;;;;;46.38;17.90;;;;;;;-2.79;88.44;99593.16;3489703;28;20342;-42
2020/12/12 00:06:04;;;;;;;36.72;14.95;;;;;;;-2.76;88.36;99600.09;3491033;28;20048;-42
2020/12/12 00:07:45;;;;;;;31.55;13.52;;;;;;;-2.77;88.31;99596.69;3489408;28;20654;-42
2020/12/12 00:09:27;;;;;;;33.53;14.57;;;;;;;-2.75;88.24;99596.78;3493689;28;20056;-42
2020/12/12 00:11:08;;;;;;;33.58;14.73;;;;;;;-2.74;88.45;99593.44;3489704;28;20333;-58
2020/12/12 00:12:50;;;;;;;33.28;14.50;;;;;;;-2.74;88.18;99586.75;3495120;28;20060;-58
2020/12/12 00:14:32;;;;;;;38.67;15.45;;;;;;;-2.72;88.35;99585.16;3490403;28;20135;-58
2020/12/12 00:16:15;;;;;;;34.63;14.80;;;;;;;-2.70;88.26;99587.81;3495473;28;20563;-58
2020/12/12 00:17:57;;;;;;;30.05;14.02;;;;;;;-2.68;88.21;99584.56;3490654;28;20051;-57
2020/12/12 00:19:39;;;;;;;38.88;15.05;;;;;;;-2.68;88.16;99589.66;3494096;28;20048;-41
2020/12/12 00:21:23;;;;;;;37.60;14.63;;;;;;;-2.66;88.25;99582.13;3491710;28;20052;-42
2020/12/12 00:23:04;;;;;;;39.85;15.25;;;;;;;-2.65;88.15;99589.84;3494048;28;20492;-58
2020/12/12 00:24:47;;;;;;;31.92;14.52;;;;;;;-2.64;88.29;99589.06;3491832;28;20075;-42
2020/12/12 00:26:29;;;;;;;37.78;15.68;;;;;;;-2.63;88.25;99585.75;3493441;28;20057;-58
2020/12/12 00:28:10;;;;;;;36.88;15.77;;;;;;;-2.62;88.32;99581.53;3492062;28;20048;-41
2020/12/12 00:29:51;;;;;;;48.65;17.08;;;;;;;-2.61;88.15;99578.25;3494021;28;20048;-41
2020/12/12 00:31:33;;;;;;;45.38;16.77;;;;;;;-2.60;88.00;99574.03;3492281;28;20045;-59
2020/12/12 00:33:14;;;;;;;42.78;16.15;;;;;;;-2.60;87.84;99582.53;3493073;28;20505;-41
2020/12/12 00:34:57;;;;;;;41.70;16.30;;;;;;;-2.60;87.88;99558.78;3492124;28;20143;-58
2020/12/12 00:36:39;;;;;;;45.22;16.42;;;;;;;-2.58;88.05;99569.94;3491562;28;20049;-42
2020/12/12 00:38:20;;;;;;;35.35;13.80;;;;;;;-2.57;88.00;99572.56;3493935;28;20080;-41
2020/12/12 00:40:03;;;;;;;37.97;15.07;;;;;;;-2.57;88.08;99557.34;3490435;28;20139;-58
2020/12/12 00:41:45;;;;;;;29.48;13.95;;;;;;;-2.55;88.16;99558.31;3494134;28;20078;-42
2020/12/12 00:43:26;;;;;;;36.05;14.43;;;;;;;-2.54;88.09;99567.69;3491977;28;20091;-58
2020/12/12 00:45:08;;;;;;;41.00;16.70;;;;;;;-2.53;88.19;99566.94;3492778;28;20135;-42
2020/12/12 00:46:50;;;;;;;30.58;13.75;;;;;;;-2.52;88.15;99562.72;3491877;28;20505;-41
2020/12/12 00:48:31;;;;;;;39.33;13.93;;;;;;;-2.51;87.89;99565.34;3495221;28;20076;-58
2020/12/12 00:50:13;;;;;;;35.42;14.25;;;;;;;-2.50;88.13;99563.69;3492426;28;20076;-58
2020/12/12 00:51:55;;;;;;;35.90;14.13;;;;;;;-2.51;88.01;99565.34;3494990;28;20076;-58
2020/12/12 00:53:36;;;;;;;37.15;13.73;;;;;;;-2.49;88.09;99562.91;3487637;28;20055;-58
2020/12/12 00:55:17;;;;;;;35.38;14.98;;;;;;;-2.49;87.85;99568.00;3495221;28;20075;-58
2020/12/12 00:56:59;;;;;;;32.22;12.80;;;;;;;-2.48;88.07;99563.00;3490114;28;20501;-58
2020/12/12 00:58:40;;;;;;;40.38;15.05;;;;;;;-2.47;87.82;99574.91;3495258;28;20078;-42
2020/12/12 01:00:21;;;;;;;36.53;14.82;;;;;;;-2.46;87.91;99565.63;3490705;28;20052;-42
2020/12/12 01:02:04;;;;;;;34.22;15.18;;;;;;;-2.45;88.07;99567.41;3493981;28;20113;-42
2020/12/12 01:03:47;;;;;;;29.77;12.93;;;;;;;-2.45;87.92;99575.88;3489141;28;20044;-58
2020/12/12 01:05:31;;;;;;;36.33;15.07;;;;;;;-2.44;87.72;99569.16;3494146;28;20101;-58
2020/12/12 01:07:12;;;;;;;33.08;14.20;;;;;;;-2.43;88.06;99568.38;3489751;28;20524;-58
2020/12/12 01:08:54;;;;;;;34.10;14.70;;;;;;;-2.41;87.83;99568.47;3495341;28;20056;-41
2020/12/12 01:10:35;;;;;;;41.17;15.95;;;;;;;-2.41;87.83;99566.81;3489333;28;20098;-41
2020/12/12 01:12:17;;;;;;;36.08;15.25;;;;;;;-2.41;87.81;99564.25;3492477;28;20048;-41
2020/12/12 01:13:59;;;;;;;34.63;13.57;;;;;;;-2.39;87.77;99562.69;3490743;28;20048;-42
2020/12/12 01:15:40;;;;;;;34.15;14.52;;;;;;;-2.37;88.01;99563.69;3495282;28;20044;-41
2020/12/12 01:17:22;;;;;;;36.22;14.90;;;;;;;-2.36;87.78;99562.03;3491443;28;20044;-42
2020/12/12 01:19:03;;;;;;;35.13;15.38;;;;;;;-2.36;87.85;99567.09;3492760;28;20417;-58
2020/12/12 01:20:46;;;;;;;35.80;14.57;;;;;;;-2.36;87.95;99555.28;3490861;28;20048;-42
2020/12/12 01:22:27;;;;;;;33.83;13.73;;;;;;;-2.35;87.75;99563.75;3494160;28;20048;-41
2020/12/12 01:24:08;;;;;;;36.55;14.18;;;;;;;-2.35;87.97;99556.13;3492036;28;20083;-41
2020/12/12 01:25:50;;;;;;;41.85;16.05;;;;;;;-2.35;87.87;99566.31;3492650;28;20520;-42
2020/12/12 01:27:31;;;;;;;35.97;14.43;;;;;;;-2.34;88.10;99552.84;3492842;28;20098;-42
2020/12/12 01:29:13;;;;;;;35.47;13.68;;;;;;;-2.34;88.09;99557.91;3492816;28;20091;-58
2020/12/12 01:30:55;;;;;;;42.05;15.98;;;;;;;-2.35;88.01;99562.13;3490554;28;20083;-59
2020/12/12 01:32:37;;;;;;;33.22;14.25;;;;;;;-2.33;87.94;99563.09;3489468;28;20056;-58
2020/12/12 01:34:18;;;;;;;40.55;15.95;;;;;;;-2.33;88.07;99565.63;3492126;28;20056;-42
2020/12/12 01:36:00;;;;;;;35.78;15.23;;;;;;;-2.31;88.01;99570.81;3491105;28;20055;-42
2020/12/12 01:37:43;;;;;;;22.25;10.98;;;;;;;-2.30;87.91;99562.38;3491487;28;20221;-58
2020/12/12 01:39:24;;;;;;;36.95;16.20;;;;;;;-2.30;87.92;99555.66;3491758;28;20076;-58
2020/12/12 01:41:07;;;;;;;37.92;14.60;;;;;;;-2.29;88.01;99566.69;3495619;28;20091;-42
2020/12/12 01:42:48;;;;;;;34.20;13.55;;;;;;;-2.29;88.02;99562.50;3493266;28;20059;-41
2020/12/12 01:44:30;;;;;;;34.78;14.43;;;;;;;-2.28;88.09;99565.94;3496655;28;20044;-58
2020/12/12 01:46:12;;;;;;;35.30;13.63;;;;;;;-2.27;87.88;99562.59;3493332;28;20100;-42
2020/12/12 01:47:54;;;;;;;33.83;13.77;;;;;;;-2.27;87.89;99563.47;3496604;28;20052;-42
2020/12/12 01:49:36;;;;;;;30.67;13.90;;;;;;;-2.26;87.92;99561.81;3493218;28;20089;-42
2020/12/12 01:51:21;;;;;;;32.03;13.80;;;;;;;-2.25;88.00;99563.56;3496363;28;20045;-42
2020/12/12 01:53:03;;;;;;;33.53;13.38;;;;;;;-2.25;87.93;99561.91;3491515;28;21361;-59
2020/12/12 01:54:46;;;;;;;28.45;12.02;;;;;;;-2.25;87.86;99561.91;3496865;28;20072;-59
2020/12/12 01:56:28;;;;;;;33.53;13.90;;;;;;;-2.23;87.73;99567.06;3492574;28;20454;-42
2020/12/12 01:58:09;;;;;;;22.85;11.13;;;;;;;-2.24;87.88;99556.03;3497184;28;20285;-42
2020/12/12 01:59:51;;;;;;;29.48;12.57;;;;;;;-2.24;87.94;99566.19;3492490;28;20063;-59
2020/12/12 02:01:39;;;;;;;28.85;13.35;;;;;;;-2.24;87.78;99567.88;3497294;28;20071;-42
2020/12/12 02:03:23;;;;;;;28.88;13.30;;;;;;;-2.24;87.88;99565.31;3489717;28;20159;-42
2020/12/12 02:05:05;;;;;;;31.92;13.00;;;;;;;-2.24;87.90;99565.31;3496658;28;20055;-59
2020/12/12 02:06:47;;;;;;;25.67;12.00;;;;;;;-2.22;87.98;99562.88;3493196;28;20449;-59
2020/12/12 02:08:29;;;;;;;32.28;13.73;;;;;;;-2.24;87.90;99563.66;3496302;28;20110;-42
2020/12/12 02:10:11;;;;;;;33.17;13.57;;;;;;;-2.22;87.67;99557.81;3494952;28;20047;-58
2020/12/12 02:11:53;;;;;;;32.28;13.90;;;;;;;-2.22;87.74;99556.13;3494096;28;20049;-58
2020/12/12 02:13:35;;;;;;;33.17;14.05;;;;;;;-2.21;87.73;99554.47;3492088;28;20405;-42
2020/12/12 02:15:16;;;;;;;28.92;13.27;;;;;;;-2.23;87.84;99551.81;3494683;28;20176;-42
2020/12/12 02:17:00;;;;;;;31.10;13.75;;;;;;;-2.24;87.85;99545.88;3493500;28;20076;-42
2020/12/12 02:18:41;;;;;;;31.00;13.32;;;;;;;-2.22;87.53;99552.72;3493727;28;20079;-58
2020/12/12 02:20:23;;;;;;;25.40;11.88;;;;;;;-2.24;87.75;99550.09;3493792;28;20048;-42
2020/12/12 02:22:06;;;;;;;32.25;13.43;;;;;;;-2.26;87.50;99550.00;3493730;28;20036;-59
2020/12/12 02:23:48;;;;;;;33.97;13.63;;;;;;;-2.26;87.66;99547.44;3495037;28;20060;-59
2020/12/12 02:25:29;;;;;;;29.98;12.82;;;;;;;-2.28;87.27;99545.59;3493940;28;20547;-59
2020/12/12 02:27:11;;;;;;;30.98;12.85;;;;;;;-2.28;87.61;99543.94;3496046;28;20517;-59
2020/12/12 02:28:55;;;;;;;32.55;14.77;;;;;;;-2.30;87.39;99542.06;3493760;28;20095;-42
2020/12/12 02:30:36;;;;;;;30.67;14.65;;;;;;;-2.29;87.58;99551.47;3496913;28;20048;-59
2020/12/12 02:32:18;;;;;;;29.20;13.35;;;;;;;-2.31;87.58;99545.41;3489929;28;20075;-59
2020/12/12 02:33:59;;;;;;;32.40;13.65;;;;;;;-2.33;87.61;99534.28;3495684;28;20057;-42
2020/12/12 02:35:41;;;;;;;31.95;13.30;;;;;;;-2.33;87.58;99541.91;3492225;28;20512;-42
2020/12/12 02:37:23;;;;;;;30.55;13.68;;;;;;;-2.34;87.48;99542.66;3495483;28;20044;-42
2020/12/12 02:39:06;;;;;;;33.63;14.05;;;;;;;-2.34;87.59;99546.06;3492079;28;20119;-58
2020/12/12 02:40:47;;;;;;;32.92;13.70;;;;;;;-2.36;87.46;99544.25;3496649;28;20736;-43
2020/12/12 02:42:29;;;;;;;34.50;13.57;;;;;;;-2.36;87.36;99541.69;3492023;28;20045;-58
2020/12/12 02:44:12;;;;;;;26.60;13.68;;;;;;;-2.37;87.37;99539.94;3496578;28;20060;-43
2020/12/12 02:45:53;;;;;;;33.33;14.32;;;;;;;-2.38;87.24;99543.28;3489472;28;20053;-42
2020/12/12 02:47:35;;;;;;;30.23;13.57;;;;;;;-2.39;87.14;99533.88;3496825;28;20304;-42
2020/12/12 02:49:17;;;;;;;33.33;14.38;;;;;;;-2.40;87.09;99534.69;3491543;28;20044;-59
2020/12/12 02:50:58;;;;;;;29.88;13.20;;;;;;;-2.41;87.19;99536.31;3493869;28;20564;-59
2020/12/12 02:52:42;;;;;;;32.15;13.07;;;;;;;-2.42;87.15;99539.66;3490798;28;20060;-59
2020/12/12 02:54:24;;;;;;;27.95;14.48;;;;;;;-2.43;87.42;99543.84;3496053;28;20527;-42
2020/12/12 02:56:05;;;;;;;35.05;13.77;;;;;;;-2.41;87.39;99536.31;3492047;28;20105;-58
2020/12/12 02:57:47;;;;;;;36.40;14.95;;;;;;;-2.43;87.15;99538.75;3493718;28;20044;-58
2020/12/12 02:59:29;;;;;;;25.15;11.48;;;;;;;-2.42;87.44;99534.59;3493618;28;20076;-42
2020/12/12 03:01:10;;;;;;;25.60;12.45;;;;;;;-2.43;87.25;99533.69;3493644;28;20045;-42
2020/12/12 03:02:52;;;;;;;34.97;14.48;;;;;;;-2.43;87.28;99535.34;3492498;28;20067;-42
2020/12/12 03:04:34;;;;;;;26.88;12.50;;;;;;;-2.42;87.09;99542.19;3493789;28;20099;-59
2020/12/12 03:06:15;;;;;;;31.02;12.77;;;;;;;-2.44;86.93;99542.09;3494987;28;20045;-58
2020/12/12 03:07:57;;;;;;;31.67;13.68;;;;;;;-2.44;86.92;99548.84;3493755;28;21097;-58
2020/12/12 03:09:39;;;;;;;28.42;13.70;;;;;;;-2.47;86.78;99541.91;3493661;28;20109;-42
2020/12/12 03:11:20;;;;;;;30.48;13.20;;;;;;;-2.47;86.79;99546.09;3492553;28;20044;-42
2020/12/12 03:13:01;;;;;;;31.05;13.75;;;;;;;-2.49;87.19;99540.06;3493686;28;20425;-42
2020/12/12 03:14:43;;;;;;;38.70;15.50;;;;;;;-2.50;87.31;99546.78;3493815;28;20052;-42
2020/12/12 03:16:24;;;;;;;35.25;14.48;;;;;;;-2.50;87.33;99544.25;3493822;28;20056;-42
2020/12/12 03:18:06;;;;;;;30.42;12.30;;;;;;;-2.51;87.32;99550.13;3492736;28;20102;-42
2020/12/12 03:19:47;;;;;;;35.30;14.98;;;;;;;-2.52;87.18;99550.88;3493887;28;20090;-58
2020/12/12 03:21:29;;;;;;;33.35;12.68;;;;;;;-2.53;87.24;99548.25;3494912;28;20052;-59
2020/12/12 03:23:11;;;;;;;30.25;12.50;;;;;;;-2.53;87.26;99551.69;3493381;28;20562;-42
2020/12/12 03:24:53;;;;;;;25.55;12.48;;;;;;;-2.53;87.18;99541.53;3492639;28;20055;-42
2020/12/12 03:26:34;;;;;;;31.42;14.73;;;;;;;-2.55;87.12;99543.06;3496271;28;20106;-42
2020/12/12 03:28:15;;;;;;;36.78;14.52;;;;;;;-2.55;87.04;99544.72;3493334;28;20048;-58
2020/12/12 03:29:57;;;;;;;30.15;13.30;;;;;;;-2.55;86.96;99547.28;3493373;28;20056;-59
2020/12/12 03:31:45;;;;;;;30.77;13.52;;;;;;;-2.56;87.23;99548.94;3493743;28;20129;-59
2020/12/12 03:33:27;;;;;;;29.73;13.45;;;;;;;-2.55;87.09;99547.28;3495969;28;20524;-59
2020/12/12 03:35:08;;;;;;;29.10;12.65;;;;;;;-2.56;87.11;99545.53;3489805;28;20041;-42
2020/12/12 03:36:50;;;;;;;31.30;13.07;;;;;;;-2.57;87.39;99544.63;3496536;28;20084;-59
2020/12/12 03:38:32;;;;;;;28.88;13.00;;;;;;;-2.58;87.11;99550.50;3490345;28;20049;-59
2020/12/12 03:40:13;;;;;;;31.67;12.98;;;;;;;-2.59;86.71;99548.75;3496385;28;20044;-42
2020/12/12 03:41:55;;;;;;;31.58;12.65;;;;;;;-2.60;86.91;99551.19;3492278;28;20045;-58
2020/12/12 03:43:36;;;;;;;31.25;13.32;;;;;;;-2.63;86.81;99545.13;3496223;28;20098;-58
2020/12/12 03:45:18;;;;;;;36.63;14.93;;;;;;;-2.64;87.02;99547.56;3488949;28;20044;-59
2020/12/12 03:46:59;;;;;;;42.22;14.93;;;;;;;-2.63;87.20;99554.41;3496068;28;20421;-59
2020/12/12 03:48:41;;;;;;;31.85;14.15;;;;;;;-2.65;86.93;99543.28;3491575;28;20622;-59
2020/12/12 03:50:27;;;;;;;32.35;13.55;;;;;;;-2.68;86.82;99554.13;3496260;28;20389;-59
2020/12/12 03:52:09;;;;;;;33.95;13.93;;;;;;;-2.68;87.03;99550.69;3491032;28;20512;-59
2020/12/12 03:53:51;;;;;;;36.80;13.70;;;;;;;-2.68;87.00;99554.13;3496460;28;20055;-42
2020/12/12 03:55:32;;;;;;;29.65;12.90;;;;;;;-2.69;86.72;99554.00;3492423;28;20453;-59
2020/12/12 03:57:14;;;;;;;34.50;13.90;;;;;;;-2.69;86.81;99551.47;3493500;28;20131;-59
2020/12/12 03:58:55;;;;;;;37.67;13.30;;;;;;;-2.71;86.65;99550.50;3492691;28;20543;-59
2020/12/12 04:00:37;;;;;;;35.33;13.57;;;;;;;-2.72;86.69;99547.09;3494654;28;20051;-42
2020/12/12 04:02:18;;;;;;;33.38;13.60;;;;;;;-2.73;86.68;99552.94;3492965;28;20452;-59
2020/12/12 04:04:00;;;;;;;28.48;12.02;;;;;;;-2.74;86.50;99542.69;3493746;28;20569;-42
2020/12/12 04:05:44;;;;;;;32.83;13.15;;;;;;;-2.75;86.61;99553.63;3493137;28;20040;-59
2020/12/12 04:07:25;;;;;;;;;;;;;;;-2.76;86.67;99546.78;3493575;28;20049;-59
2020/12/12 04:09:07;;;;;;;31.55;13.38;;;;;;;-2.78;86.40;99545.81;3490937;28;19986;-42
2020/12/12 04:10:49;;;;;;;30.73;13.20;;;;;;;-2.77;86.67;99550.13;3493029;28;20081;-42
2020/12/12 04:12:30;;;;;;;31.63;12.98;;;;;;;-2.79;86.74;99537.31;3493098;28;20221;-42
2020/12/12 04:14:11;;;;;;;31.05;13.35;;;;;;;-2.79;86.95;99542.41;3493125;28;20048;-42
2020/12/12 04:15:53;;;;;;;31.75;13.10;;;;;;;-2.78;86.76;99538.19;3495648;28;20052;-42
2020/12/12 04:17:35;;;;;;;30.25;11.23;;;;;;;-2.78;86.90;99545.81;3492798;28;20044;-59
2020/12/12 04:19:16;;;;;;;35.85;13.65;;;;;;;-2.80;86.92;99535.56;3493746;28;20049;-59
2020/12/12 04:20:58;;;;;;;44.45;14.18;;;;;;;-2.81;86.93;99539.75;3492478;28;20533;-59
2020/12/12 04:22:39;;;;;;;27.02;11.75;;;;;;;-2.83;86.81;99536.25;3496510;28;20083;-59
2020/12/12 04:24:21;;;;;;;32.10;11.85;;;;;;;-2.85;86.68;99535.28;3491473;28;20045;-43
2020/12/12 04:26:03;;;;;;;29.65;11.45;;;;;;;-2.87;86.68;99534.28;3496400;28;20052;-59
2020/12/12 04:27:45;;;;;;;33.83;14.05;;;;;;;-2.88;86.60;99534.16;3490648;28;20045;-42
2020/12/12 04:29:26;;;;;;;34.72;14.25;;;;;;;-2.90;86.81;99539.19;3495548;28;20574;-59
2020/12/12 04:31:08;;;;;;;25.52;12.02;;;;;;;-2.92;86.85;99543.25;3492678;28;20049;-59
2020/12/12 04:32:49;;;;;;;29.98;13.45;;;;;;;-2.94;86.81;99529.59;3496646;28;20057;-59
2020/12/12 04:34:31;;;;;;;32.58;13.40;;;;;;;-2.96;86.57;99525.22;3491857;28;20115;-59
2020/12/12 04:36:13;;;;;;;30.25;11.73;;;;;;;-2.96;86.90;99532.81;3496222;28;20101;-42
2020/12/12 04:37:57;;;;;;;29.30;12.98;;;;;;;-2.98;86.89;99524.22;3486173;28;20053;-59
2020/12/12 04:39:39;;;;;;;35.08;13.90;;;;;;;-2.98;87.04;99531.84;3482688;28;20399;-59
2020/12/12 04:41:21;;;;;;;33.35;12.93;;;;;;;-2.98;86.87;99524.22;3491062;28;20075;-58
2020/12/12 04:43:03;;;;;;;24.73;11.82;;;;;;;-2.99;86.74;99536.03;3496093;28;20085;-59
2020/12/12 04:44:45;;;;;;;34.22;12.95;;;;;;;-3.00;86.90;99529.22;3490494;28;20048;-58
2020/12/12 04:46:27;;;;;;;27.55;12.65;;;;;;;-3.01;86.92;99532.50;3496117;28;20048;-59
2020/12/12 04:48:09;;;;;;;34.17;13.98;;;;;;;-3.02;86.91;99534.19;3489514;28;20440;-58
2020/12/12 04:49:51;;;;;;;30.60;13.02;;;;;;;-3.03;86.88;99531.53;3496199;28;20053;-42
2020/12/12 04:51:33;;;;;;;26.02;10.55;;;;;;;-3.04;86.89;99529.75;3491610;28;20072;-58
2020/12/12 04:53:16;;;;;;;20.30;9.82;;;;;;;-3.06;86.58;99521.19;3495429;28;20091;-57
2020/12/12 04:55:05;;;;;;;30.65;12.98;;;;;;;-3.09;86.47;99521.00;3493070;28;20055;-42
2020/12/12 04:56:47;;;;;;;33.95;13.30;;;;;;;-3.12;86.40;99519.13;3494147;28;20044;-41
2020/12/12 04:58:29;;;;;;;30.67;12.85;;;;;;;-3.15;86.57;99518.91;3486694;28;20048;-59
2020/12/12 05:00:13;;;;;;;31.25;12.30;;;;;;;-3.15;86.65;99521.47;3485041;28;20044;-42
2020/12/12 05:01:54;;;;;;;28.60;12.20;;;;;;;-3.17;86.61;99520.47;3492759;28;20071;-58
2020/12/12 05:03:37;;;;;;;28.63;11.50;;;;;;;-3.17;86.65;99520.47;3494130;28;20127;-42
2020/12/12 05:05:18;;;;;;;31.17;11.95;;;;;;;-3.18;86.71;99521.28;3494324;28;20044;-59
2020/12/12 05:06:59;;;;;;;29.73;12.95;;;;;;;-3.19;86.58;99525.47;3492972;28;20065;-59
2020/12/12 05:08:41;;;;;;;27.58;11.90;;;;;;;-3.19;86.55;99522.06;3493725;28;20052;-42
2020/12/12 05:10:26;;;;;;;24.02;12.05;;;;;;;-3.20;86.70;99521.19;3490514;28;20083;-42
2020/12/12 05:12:08;;;;;;;21.48;10.50;;;;;;;-3.20;86.74;99516.09;3493806;28;20052;-42
2020/12/12 05:13:50;;;;;;;30.25;12.20;;;;;;;-3.20;86.61;99520.28;3490335;28;20088;-41
2020/12/12 05:15:31;;;;;;;27.90;11.70;;;;;;;-3.21;86.53;99509.25;3493218;28;20143;-59
2020/12/12 05:17:14;;;;;;;27.33;11.55;;;;;;;-3.22;86.59;99515.13;3491623;28;20045;-43
2020/12/12 05:18:56;;;;;;;29.25;12.63;;;;;;;-3.21;86.68;99514.34;3494789;28;20523;-43
2020/12/12 05:20:38;;;;;;;31.23;12.73;;;;;;;-3.21;86.43;99513.47;3491364;28;20198;-42
2020/12/12 05:22:19;;;;;;;25.17;11.63;;;;;;;-3.24;86.34;99506.50;3496301;28;20080;-59
2020/12/12 05:24:02;;;;;;;25.83;11.30;;;;;;;-3.25;86.27;99508.97;3489911;28;20088;-42
2020/12/12 05:25:46;;;;;;;29.23;12.13;;;;;;;-3.26;86.19;99519.91;3496400;28;20059;-42
2020/12/12 05:27:28;;;;;;;26.05;11.27;;;;;;;-3.29;86.15;99517.16;3491389;28;20041;-42
2020/12/12 05:29:12;;;;;;;29.80;11.80;;;;;;;-3.31;86.08;99517.03;3495698;28;20141;-41
2020/12/12 05:30:53;;;;;;;28.38;12.20;;;;;;;-3.33;86.11;99518.59;3491722;28;20509;-58
2020/12/12 05:32:35;;;;;;;30.02;11.88;;;;;;;-3.34;85.93;99521.94;3494986;28;20568;-42
2020/12/12 05:34:17;;;;;;;31.38;11.48;;;;;;;-3.36;86.10;99520.94;3492561;28;20079;-59
2020/12/12 05:35:58;;;;;;;23.65;11.20;;;;;;;-3.38;85.87;99520.84;3493852;28;20060;-59
2020/12/12 05:37:40;;;;;;;26.77;10.93;;;;;;;-3.40;85.80;99517.31;3493363;28;20063;-42
2020/12/12 05:39:22;;;;;;;26.08;11.00;;;;;;;-3.42;85.59;99518.00;3493816;28;20053;-59
2020/12/12 05:41:04;;;;;;;22.17;11.38;;;;;;;-3.45;85.57;99521.19;3492976;28;20539;-59
2020/12/12 05:42:46;;;;;;;23.80;10.90;;;;;;;-3.49;84.92;99514.19;3493094;28;20052;-42
2020/12/12 05:44:30;;;;;;;29.63;12.13;;;;;;;-3.50;85.28;99526.75;3493284;28;20076;-42
2020/12/12 05:46:12;;;;;;;25.30;11.15;;;;;;;-3.53;85.35;99519.81;3492184;28;20105;-42
2020/12/12 05:47:53;;;;;;;30.75;13.20;;;;;;;-3.53;85.17;99531.63;3494031;28;20132;-42
2020/12/12 05:49:35;;;;;;;28.33;12.45;;;;;;;-3.55;85.34;99533.16;3492144;28;20044;-42
2020/12/12 05:51:18;;;;;;;25.35;11.45;;;;;;;-3.58;85.12;99529.66;3495269;28;20044;-42
2020/12/12 05:53:00;;;;;;;27.33;12.38;;;;;;;-3.59;85.44;99525.38;3491099;28;20048;-59
2020/12/12 05:54:41;;;;;;;28.00;11.68;;;;;;;-3.60;85.53;99526.13;3496095;28;20079;-59
2020/12/12 05:56:24;;;;;;;26.35;12.30;;;;;;;-3.62;85.32;99515.03;3490006;28;20049;-58
2020/12/12 05:58:05;;;;;;;26.67;11.70;;;;;;;-3.64;85.50;99524.19;3481803;28;20056;-42
2020/12/12 05:59:47;;;;;;;30.25;13.38;;;;;;;-3.64;85.43;99520.75;3487697;28;20060;-58
2020/12/12 06:01:30;;;;;;;29.88;13.00;;;;;;;-3.67;85.43;99515.50;3493558;28;20481;-58
2020/12/12 06:03:21;;;;;;;29.52;13.13;;;;;;;-3.66;85.68;99513.06;3490426;28;20049;-42
2020/12/12 06:05:05;;;;;;;24.30;10.98;;;;;;;-3.67;85.62;99513.84;3493766;28;20048;-42
2020/12/12 06:06:47;;;;;;;29.27;12.98;;;;;;;-3.66;85.81;99512.16;3489829;28;20048;-42
2020/12/12 06:08:33;;;;;;;25.50;12.20;;;;;;;-3.63;85.79;99518.31;3491664;28;20048;-42
2020/12/12 06:10:18;;;;;;;31.02;13.10;;;;;;;-3.65;85.66;99514.81;3491090;28;20055;-42
2020/12/12 06:12:02;;;;;;;26.90;13.05;;;;;;;-3.65;85.81;99512.28;3492681;28;20041;-43
2020/12/12 06:13:46;;;;;;;34.47;13.75;;;;;;;-3.63;85.81;99514.91;3490649;28;20426;-42
2020/12/12 06:15:34;;;;;;;30.40;14.43;;;;;;;-3.65;85.69;99517.34;3492863;28;20510;-42
2020/12/12 06:17:22;;;;;;;30.08;12.32;;;;;;;-3.66;85.51;99512.16;3492783;28;20048;-42
2020/12/12 06:19:08;;;;;;;29.80;13.23;;;;;;;-3.68;85.45;99516.25;3489397;28;20139;-42
2020/12/12 06:20:52;;;;;;;32.65;13.50;;;;;;;-3.70;85.47;99520.34;3493855;28;20056;-42
2020/12/12 06:22:33;;;;;;;26.75;12.65;;;;;;;-3.72;85.26;99515.19;3487814;28;20136;-42
2020/12/12 06:24:16;;;;;;;27.60;13.10;;;;;;;-3.73;85.30;99520.13;3494428;28;20052;-42
2020/12/12 06:25:59;;;;;;;25.58;12.57;;;;;;;-3.76;85.43;99515.75;3490832;28;20139;-42
2020/12/12 06:27:45;;;;;;;32.30;13.73;;;;;;;-3.77;85.59;99517.38;3497154;28;20098;-42
2020/12/12 06:29:30;;;;;;;33.63;13.93;;;;;;;-3.78;85.38;99517.31;3489146;28;20462;-42
2020/12/12 06:31:13;;;;;;;31.25;12.25;;;;;;;-3.79;85.50;99520.59;3498018;28;20044;-42
2020/12/12 06:32:59;;;;;;;28.27;13.00;;;;;;;-3.80;85.39;99522.28;3489580;28;20052;-42
2020/12/12 06:34:43;;;;;;;26.70;11.68;;;;;;;-3.81;85.52;99520.50;3498185;28;20060;-59
2020/12/12 06:36:28;;;;;;;30.33;13.60;;;;;;;-3.79;85.67;99515.53;3490443;28;20414;-59
2020/12/12 06:38:23;;;;;;;33.58;14.40;;;;;;;-3.78;85.77;99522.38;3497827;28;20052;-58
2020/12/12 06:40:06;;;;;;;28.23;13.23;;;;;;;-3.78;85.90;99514.78;3493450;28;20057;-59
2020/12/12 06:41:49;;;;;;;33.97;14.95;;;;;;;-3.79;85.79;99523.13;3494735;28;20084;-59
2020/12/12 06:43:34;;;;;;;28.80;12.43;;;;;;;-3.80;85.65;99519.75;3495026;28;20055;-42
2020/12/12 06:45:31;;;;;;;35.42;14.43;;;;;;;-3.80;85.57;99519.75;3494125;28;20139;-43
2020/12/12 06:47:12;;;;;;;33.70;14.48;;;;;;;-3.80;85.60;99523.91;3496434;28;20044;-42
2020/12/12 06:49:08;;;;;;;32.65;16.02;;;;;;;-3.79;85.63;99528.22;3493352;28;20045;-42
2020/12/12 06:50:50;;;;;;;35.85;15.02;;;;;;;-3.78;85.55;99523.25;3497357;28;20521;-42
2020/12/12 06:52:31;;;;;;;32.95;13.23;;;;;;;-3.77;85.46;99513.97;3490148;28;20082;-42
2020/12/12 06:54:13;;;;;;;29.88;13.98;;;;;;;-3.77;85.49;99512.31;3497002;28;20531;-42
2020/12/12 06:56:08;;;;;;;27.83;13.82;;;;;;;-3.76;85.43;99509.03;3490898;28;20056;-42
2020/12/12 06:57:56;;;;;;;23.60;11.93;;;;;;;-3.76;85.36;99509.03;3496683;28;20459;-42
2020/12/12 06:59:38;;;;;;;27.50;12.32;;;;;;;-3.76;85.51;99509.03;3491150;28;20053;-42
2020/12/12 07:01:28;;;;;;;26.75;12.65;;;;;;;-3.74;85.51;99505.72;3494656;28;20133;-42
2020/12/12 07:03:10;;;;;;;31.50;14.48;;;;;;;-3.74;85.50;99511.66;3493261;28;20045;-42
2020/12/12 07:04:51;;;;;;;31.33;14.05;;;;;;;-3.74;85.27;99514.19;3495380;28;20118;-42
2020/12/12 07:06:34;;;;;;;32.75;13.73;;;;;;;-3.75;85.30;99507.34;3495183;28;20048;-42
2020/12/12 07:08:16;;;;;;;34.58;14.30;;;;;;;-3.74;85.47;99509.13;3495446;28;20049;-42
2020/12/12 07:09:57;;;;;;;27.75;12.52;;;;;;;-3.74;85.68;99506.59;3493588;28;20198;-41
2020/12/12 07:11:38;;;;;;;33.17;13.93;;;;;;;-3.73;85.77;99505.78;3491933;28;20111;-42
2020/12/12 07:13:20;;;;;;;32.17;14.20;;;;;;;-3.73;85.20;99505.78;3494892;28;20055;-42
2020/12/12 07:15:03;;;;;;;31.50;12.50;;;;;;;-3.73;85.80;99510.88;3493149;28;20051;-43
2020/12/12 07:16:44;;;;;;;31.00;13.15;;;;;;;-3.71;85.72;99508.44;3494548;28;20045;-42
2020/12/12 07:18:27;;;;;;;29.83;11.88;;;;;;;-3.71;85.67;99499.22;3493087;28;20048;-42
2020/12/12 07:20:09;;;;;;;31.30;13.93;;;;;;;-3.69;85.59;99502.72;3493022;28;20444;-42
2020/12/12 07:21:52;;;;;;;31.40;14.00;;;;;;;-3.69;85.55;99499.31;3491666;28;20107;-43
2020/12/12 07:23:33;;;;;;;33.50;13.10;;;;;;;-3.68;85.64;99489.25;3495791;28;20044;-42
2020/12/12 07:25:15;;;;;;;30.00;13.05;;;;;;;-3.67;85.67;99485.09;3492526;28;20076;-42
2020/12/12 07:26:58;;;;;;;28.45;12.50;;;;;;;-3.66;85.51;99487.72;3497238;28;20052;-42
2020/12/12 07:28:40;;;;;;;33.25;12.57;;;;;;;-3.63;85.71;99482.84;3493248;28;20076;-42
2020/12/12 07:30:23;;;;;;;36.15;13.70;;;;;;;-3.62;85.63;99487.13;3497311;28;20049;-42
2020/12/12 07:32:04;;;;;;;26.70;12.35;;;;;;;-3.60;85.79;99483.03;3491417;28;20076;-42
2020/12/12 07:33:47;;;;;;;31.52;13.70;;;;;;;-3.59;85.91;99486.44;3497474;28;20053;-42
2020/12/12 07:35:29;;;;;;;31.95;13.15;;;;;;;-3.58;85.73;99485.69;3491295;28;20052;-42
2020/12/12 07:37:11;;;;;;;30.85;13.45;;;;;;;-3.57;85.71;99487.41;3496142;28;20048;-42
2020/12/12 07:38:53;;;;;;;28.08;11.85;;;;;;;-3.55;85.81;99490.06;3492002;28;20088;-42
2020/12/12 07:40:36;;;;;;;24.15;11.27;;;;;;;-3.56;85.84;99491.72;3496534;28;20098;-41
2020/12/12 07:42:22;;;;;;;32.45;12.40;;;;;;;-3.54;85.77;99495.25;3489833;28;20044;-42
2020/12/12 07:44:07;;;;;;;29.52;12.30;;;;;;;-3.54;85.75;99497.78;3495620;28;20048;-42
2020/12/12 07:45:58;;;;;;;28.25;13.07;;;;;;;-3.53;85.73;99499.53;3493138;28;20048;-42
2020/12/12 07:47:40;;;;;;;28.58;12.52;;;;;;;-3.54;85.80;99495.25;3491314;28;20522;-42
2020/12/12 07:49:21;;;;;;;32.47;12.63;;;;;;;-3.52;85.82;99497.88;3492483;28;20461;-42
2020/12/12 07:51:12;;;;;;;28.52;12.38;;;;;;;-3.51;85.99;99494.59;3494109;28;20045;-42